sensor_id;sensor_type;location;lat;lon;timestamp;P1;durP1;ratioP1;P2;durP2;ratioP2
73508;SDS011;72120;54.964;73.444;2023-09-12T00:01:44;6.05;;;1.90;;
73508;SDS011;72120;54.964;73.444;2023-09-12T00:04:12;3.65;;;1.65;;
73508;SDS011;72120;54.964;73.444;2023-09-12T00:06:38;3.03;;;1.50;;
73508;SDS011;72120;54.964;73.444;2023-09-12T00:09:04;7.78;;;1.80;;
73508;SDS011;72120;54.964;73.444;2023-09-12T00:11:34;4.65;;;1.60;;
73508;SDS011;72120;54.964;73.444;2023-09-12T00:14:00;4.70;;;1.50;;
73508;SDS011;72120;54.964;73.444;2023-09-12T00:16:26;3.58;;;1.60;;
73508;SDS011;72120;54.964;73.444;2023-09-12T00:18:52;3.65;;;1.60;;
73508;SDS011;72120;54.964;73.444;2023-09-12T00:21:19;3.45;;;1.60;;
73508;SDS011;72120;54.964;73.444;2023-09-12T00:26:12;5.55;;;1.80;;
73508;SDS011;72120;54.964;73.444;2023-09-12T00:28:39;4.03;;;1.70;;
73508;SDS011;72120;54.964;73.444;2023-09-12T00:31:06;2.53;;;1.60;;
73508;SDS011;72120;54.964;73.444;2023-09-12T00:33:33;3.55;;;1.77;;
73508;SDS011;72120;54.964;73.444;2023-09-12T00:35:59;3.20;;;1.60;;
73508;SDS011;72120;54.964;73.444;2023-09-12T00:38:25;3.30;;;1.50;;
73508;SDS011;72120;54.964;73.444;2023-09-12T00:40:52;4.18;;;1.77;;
73508;SDS011;72120;54.964;73.444;2023-09-12T00:43:18;4.40;;;1.77;;
73508;SDS011;72120;54.964;73.444;2023-09-12T00:45:44;3.00;;;1.52;;
73508;SDS011;72120;54.964;73.444;2023-09-12T00:48:10;5.63;;;2.20;;
73508;SDS011;72120;54.964;73.444;2023-09-12T00:50:37;4.75;;;1.75;;
73508;SDS011;72120;54.964;73.444;2023-09-12T00:53:05;5.90;;;1.90;;
73508;SDS011;72120;54.964;73.444;2023-09-12T00:55:31;4.95;;;2.10;;
73508;SDS011;72120;54.964;73.444;2023-09-12T00:57:59;7.05;;;1.77;;
73508;SDS011;72120;54.964;73.444;2023-09-12T01:00:27;3.35;;;1.95;;
73508;SDS011;72120;54.964;73.444;2023-09-12T01:02:53;4.38;;;1.73;;
73508;SDS011;72120;54.964;73.444;2023-09-12T01:05:19;4.10;;;1.67;;
73508;SDS011;72120;54.964;73.444;2023-09-12T01:07:47;3.72;;;1.50;;
73508;SDS011;72120;54.964;73.444;2023-09-12T01:10:14;3.83;;;1.88;;
73508;SDS011;72120;54.964;73.444;2023-09-12T01:12:40;4.60;;;2.28;;
73508;SDS011;72120;54.964;73.444;2023-09-12T01:15:06;3.92;;;1.90;;
73508;SDS011;72120;54.964;73.444;2023-09-12T01:17:40;4.22;;;1.90;;
73508;SDS011;72120;54.964;73.444;2023-09-12T01:20:26;4.00;;;2.00;;
73508;SDS011;72120;54.964;73.444;2023-09-12T01:28:05;4.15;;;1.80;;
73508;SDS011;72120;54.964;73.444;2023-09-12T01:30:35;9.65;;;2.10;;
73508;SDS011;72120;54.964;73.444;2023-09-12T01:35:27;4.35;;;1.90;;
73508;SDS011;72120;54.964;73.444;2023-09-12T01:37:56;6.07;;;2.15;;
73508;SDS011;72120;54.964;73.444;2023-09-12T01:40:38;4.25;;;1.95;;
73508;SDS011;72120;54.964;73.444;2023-09-12T01:43:15;4.35;;;1.70;;
73508;SDS011;72120;54.964;73.444;2023-09-12T01:45:44;6.95;;;2.08;;
73508;SDS011;72120;54.964;73.444;2023-09-12T01:48:12;5.65;;;2.05;;
73508;SDS011;72120;54.964;73.444;2023-09-12T01:50:42;3.30;;;1.90;;
73508;SDS011;72120;54.964;73.444;2023-09-12T01:53:08;4.45;;;1.80;;
73508;SDS011;72120;54.964;73.444;2023-09-12T01:55:34;10.48;;;2.03;;
73508;SDS011;72120;54.964;73.444;2023-09-12T01:58:01;4.03;;;2.00;;
73508;SDS011;72120;54.964;73.444;2023-09-12T02:02:55;5.43;;;1.98;;
73508;SDS011;72120;54.964;73.444;2023-09-12T02:05:21;8.18;;;2.15;;
73508;SDS011;72120;54.964;73.444;2023-09-12T02:07:48;11.50;;;2.03;;
73508;SDS011;72120;54.964;73.444;2023-09-12T02:10:14;8.48;;;2.50;;
73508;SDS011;72120;54.964;73.444;2023-09-12T02:12:41;3.70;;;2.10;;
73508;SDS011;72120;54.964;73.444;2023-09-12T02:15:07;5.68;;;2.03;;
73508;SDS011;72120;54.964;73.444;2023-09-12T02:17:34;8.35;;;2.33;;
73508;SDS011;72120;54.964;73.444;2023-09-12T02:20:20;6.30;;;2.00;;
73508;SDS011;72120;54.964;73.444;2023-09-12T02:22:46;5.85;;;1.90;;
73508;SDS011;72120;54.964;73.444;2023-09-12T02:25:12;4.95;;;1.80;;
73508;SDS011;72120;54.964;73.444;2023-09-12T02:27:39;6.07;;;2.42;;
73508;SDS011;72120;54.964;73.444;2023-09-12T02:30:05;6.38;;;2.20;;
73508;SDS011;72120;54.964;73.444;2023-09-12T02:32:32;3.90;;;2.10;;
73508;SDS011;72120;54.964;73.444;2023-09-12T02:34:58;7.70;;;2.50;;
73508;SDS011;72120;54.964;73.444;2023-09-12T02:37:24;6.97;;;2.40;;
73508;SDS011;72120;54.964;73.444;2023-09-12T02:39:50;4.95;;;2.00;;
73508;SDS011;72120;54.964;73.444;2023-09-12T02:42:16;3.65;;;1.98;;
73508;SDS011;72120;54.964;73.444;2023-09-12T02:44:42;7.47;;;2.35;;
73508;SDS011;72120;54.964;73.444;2023-09-12T02:47:08;5.90;;;2.03;;
73508;SDS011;72120;54.964;73.444;2023-09-12T02:49:35;7.05;;;2.03;;
73508;SDS011;72120;54.964;73.444;2023-09-12T02:52:03;4.43;;;1.90;;
73508;SDS011;72120;54.964;73.444;2023-09-12T02:54:29;5.60;;;2.50;;
73508;SDS011;72120;54.964;73.444;2023-09-12T02:56:55;5.22;;;2.30;;
73508;SDS011;72120;54.964;73.444;2023-09-12T02:59:21;7.30;;;2.03;;
73508;SDS011;72120;54.964;73.444;2023-09-12T03:01:48;5.78;;;1.88;;
73508;SDS011;72120;54.964;73.444;2023-09-12T03:04:14;5.63;;;1.73;;
73508;SDS011;72120;54.964;73.444;2023-09-12T03:06:40;7.70;;;2.42;;
73508;SDS011;72120;54.964;73.444;2023-09-12T03:09:06;4.47;;;1.95;;
73508;SDS011;72120;54.964;73.444;2023-09-12T03:11:32;9.68;;;1.90;;
73508;SDS011;72120;54.964;73.444;2023-09-12T03:13:58;13.02;;;2.30;;
73508;SDS011;72120;54.964;73.444;2023-09-12T03:16:24;3.70;;;1.80;;
73508;SDS011;72120;54.964;73.444;2023-09-12T03:18:51;8.10;;;2.35;;
73508;SDS011;72120;54.964;73.444;2023-09-12T03:21:17;8.27;;;2.42;;
73508;SDS011;72120;54.964;73.444;2023-09-12T03:23:43;6.43;;;2.10;;
73508;SDS011;72120;54.964;73.444;2023-09-12T03:26:09;9.68;;;2.30;;
73508;SDS011;72120;54.964;73.444;2023-09-12T03:28:37;4.45;;;1.90;;
73508;SDS011;72120;54.964;73.444;2023-09-12T03:31:05;12.40;;;2.38;;
73508;SDS011;72120;54.964;73.444;2023-09-12T03:33:33;4.78;;;2.10;;
73508;SDS011;72120;54.964;73.444;2023-09-12T03:35:59;6.90;;;2.10;;
73508;SDS011;72120;54.964;73.444;2023-09-12T03:38:26;4.47;;;2.10;;
73508;SDS011;72120;54.964;73.444;2023-09-12T03:40:52;11.45;;;2.80;;
73508;SDS011;72120;54.964;73.444;2023-09-12T03:43:18;10.73;;;2.35;;
73508;SDS011;72120;54.964;73.444;2023-09-12T03:45:47;10.77;;;2.65;;
73508;SDS011;72120;54.964;73.444;2023-09-12T03:48:14;11.23;;;2.47;;
73508;SDS011;72120;54.964;73.444;2023-09-12T03:50:41;9.65;;;2.70;;
73508;SDS011;72120;54.964;73.444;2023-09-12T03:53:07;13.07;;;4.35;;
73508;SDS011;72120;54.964;73.444;2023-09-12T03:57:59;6.70;;;2.85;;
73508;SDS011;72120;54.964;73.444;2023-09-12T04:00:26;4.75;;;2.25;;
73508;SDS011;72120;54.964;73.444;2023-09-12T04:02:52;6.45;;;2.28;;
73508;SDS011;72120;54.964;73.444;2023-09-12T04:05:18;12.65;;;2.53;;
73508;SDS011;72120;54.964;73.444;2023-09-12T04:07:44;12.20;;;2.33;;
73508;SDS011;72120;54.964;73.444;2023-09-12T04:10:10;6.60;;;2.33;;
73508;SDS011;72120;54.964;73.444;2023-09-12T04:12:36;7.13;;;2.75;;
73508;SDS011;72120;54.964;73.444;2023-09-12T04:15:02;8.75;;;2.35;;
73508;SDS011;72120;54.964;73.444;2023-09-12T04:17:29;11.32;;;2.53;;
73508;SDS011;72120;54.964;73.444;2023-09-12T04:19:55;17.63;;;3.00;;
73508;SDS011;72120;54.964;73.444;2023-09-12T04:22:21;7.78;;;2.53;;
73508;SDS011;72120;54.964;73.444;2023-09-12T04:24:47;10.68;;;2.40;;
73508;SDS011;72120;54.964;73.444;2023-09-12T04:27:13;14.98;;;2.97;;
73508;SDS011;72120;54.964;73.444;2023-09-12T04:29:40;14.57;;;2.72;;
73508;SDS011;72120;54.964;73.444;2023-09-12T04:32:06;11.73;;;2.53;;
73508;SDS011;72120;54.964;73.444;2023-09-12T04:34:32;26.42;;;2.88;;
73508;SDS011;72120;54.964;73.444;2023-09-12T04:36:59;16.10;;;2.75;;
73508;SDS011;72120;54.964;73.444;2023-09-12T04:39:25;16.45;;;3.03;;
73508;SDS011;72120;54.964;73.444;2023-09-12T04:41:51;10.13;;;2.60;;
73508;SDS011;72120;54.964;73.444;2023-09-12T04:44:18;9.75;;;2.60;;
73508;SDS011;72120;54.964;73.444;2023-09-12T04:46:44;10.77;;;2.65;;
73508;SDS011;72120;54.964;73.444;2023-09-12T04:49:11;11.70;;;2.83;;
73508;SDS011;72120;54.964;73.444;2023-09-12T04:54:04;24.90;;;3.55;;
73508;SDS011;72120;54.964;73.444;2023-09-12T04:56:30;6.43;;;2.17;;
73508;SDS011;72120;54.964;73.444;2023-09-12T04:58:56;24.50;;;3.15;;
73508;SDS011;72120;54.964;73.444;2023-09-12T05:01:23;8.27;;;2.70;;
73508;SDS011;72120;54.964;73.444;2023-09-12T05:03:51;16.23;;;3.10;;
73508;SDS011;72120;54.964;73.444;2023-09-12T05:06:17;15.45;;;2.90;;
73508;SDS011;72120;54.964;73.444;2023-09-12T05:08:44;16.40;;;3.60;;
73508;SDS011;72120;54.964;73.444;2023-09-12T05:11:10;22.48;;;3.40;;
73508;SDS011;72120;54.964;73.444;2023-09-12T05:13:36;11.38;;;2.65;;
73508;SDS011;72120;54.964;73.444;2023-09-12T05:16:02;13.15;;;2.70;;
73508;SDS011;72120;54.964;73.444;2023-09-12T05:18:29;9.70;;;3.00;;
73508;SDS011;72120;54.964;73.444;2023-09-12T05:20:55;9.98;;;3.10;;
73508;SDS011;72120;54.964;73.444;2023-09-12T05:23:22;7.70;;;2.70;;
73508;SDS011;72120;54.964;73.444;2023-09-12T05:25:48;6.10;;;2.40;;
73508;SDS011;72120;54.964;73.444;2023-09-12T05:28:15;14.38;;;3.10;;
73508;SDS011;72120;54.964;73.444;2023-09-12T05:30:45;19.27;;;3.00;;
73508;SDS011;72120;54.964;73.444;2023-09-12T05:33:11;5.90;;;2.80;;
73508;SDS011;72120;54.964;73.444;2023-09-12T05:35:37;7.60;;;3.05;;
73508;SDS011;72120;54.964;73.444;2023-09-12T05:38:03;20.52;;;2.88;;
73508;SDS011;72120;54.964;73.444;2023-09-12T05:40:30;9.52;;;2.25;;
73508;SDS011;72120;54.964;73.444;2023-09-12T05:42:56;7.40;;;2.60;;
73508;SDS011;72120;54.964;73.444;2023-09-12T05:45:22;6.43;;;2.50;;
73508;SDS011;72120;54.964;73.444;2023-09-12T05:47:49;8.27;;;2.67;;
73508;SDS011;72120;54.964;73.444;2023-09-12T05:50:16;14.60;;;3.45;;
73508;SDS011;72120;54.964;73.444;2023-09-12T05:52:42;10.70;;;2.85;;
73508;SDS011;72120;54.964;73.444;2023-09-12T05:55:10;8.02;;;2.60;;
73508;SDS011;72120;54.964;73.444;2023-09-12T05:57:36;11.95;;;2.65;;
73508;SDS011;72120;54.964;73.444;2023-09-12T06:00:02;9.88;;;2.70;;
73508;SDS011;72120;54.964;73.444;2023-09-12T06:02:38;11.95;;;2.67;;
73508;SDS011;72120;54.964;73.444;2023-09-12T06:05:04;5.82;;;2.83;;
73508;SDS011;72120;54.964;73.444;2023-09-12T06:07:31;5.57;;;2.65;;
73508;SDS011;72120;54.964;73.444;2023-09-12T06:09:58;15.07;;;3.83;;
73508;SDS011;72120;54.964;73.444;2023-09-12T06:12:24;14.38;;;3.20;;
73508;SDS011;72120;54.964;73.444;2023-09-12T06:14:50;16.52;;;4.38;;
73508;SDS011;72120;54.964;73.444;2023-09-12T06:17:17;7.88;;;3.22;;
73508;SDS011;72120;54.964;73.444;2023-09-12T06:19:43;17.83;;;3.92;;
73508;SDS011;72120;54.964;73.444;2023-09-12T06:22:09;10.75;;;3.40;;
73508;SDS011;72120;54.964;73.444;2023-09-12T06:24:35;12.05;;;2.88;;
73508;SDS011;72120;54.964;73.444;2023-09-12T06:27:02;10.73;;;3.47;;
73508;SDS011;72120;54.964;73.444;2023-09-12T06:29:28;12.32;;;3.40;;
73508;SDS011;72120;54.964;73.444;2023-09-12T06:31:55;11.90;;;4.20;;
73508;SDS011;72120;54.964;73.444;2023-09-12T06:34:22;9.85;;;3.70;;
73508;SDS011;72120;54.964;73.444;2023-09-12T06:36:48;9.65;;;3.88;;
73508;SDS011;72120;54.964;73.444;2023-09-12T06:39:17;13.73;;;4.45;;
73508;SDS011;72120;54.964;73.444;2023-09-12T06:41:43;10.25;;;4.95;;
73508;SDS011;72120;54.964;73.444;2023-09-12T06:44:09;9.48;;;4.28;;
73508;SDS011;72120;54.964;73.444;2023-09-12T06:46:35;7.70;;;3.05;;
73508;SDS011;72120;54.964;73.444;2023-09-12T06:49:03;7.50;;;3.00;;
73508;SDS011;72120;54.964;73.444;2023-09-12T06:51:29;8.82;;;2.95;;
73508;SDS011;72120;54.964;73.444;2023-09-12T06:53:55;8.85;;;3.08;;
73508;SDS011;72120;54.964;73.444;2023-09-12T06:56:21;11.88;;;3.15;;
73508;SDS011;72120;54.964;73.444;2023-09-12T06:58:47;5.95;;;3.00;;
73508;SDS011;72120;54.964;73.444;2023-09-12T07:01:18;5.85;;;2.80;;
73508;SDS011;72120;54.964;73.444;2023-09-12T07:03:44;6.75;;;2.65;;
73508;SDS011;72120;54.964;73.444;2023-09-12T07:06:10;8.88;;;3.10;;
73508;SDS011;72120;54.964;73.444;2023-09-12T07:08:36;5.88;;;3.10;;
73508;SDS011;72120;54.964;73.444;2023-09-12T07:11:03;5.68;;;2.75;;
73508;SDS011;72120;54.964;73.444;2023-09-12T07:13:32;4.40;;;2.80;;
73508;SDS011;72120;54.964;73.444;2023-09-12T07:15:58;8.02;;;3.40;;
73508;SDS011;72120;54.964;73.444;2023-09-12T07:18:40;8.55;;;3.00;;
73508;SDS011;72120;54.964;73.444;2023-09-12T07:23:32;6.18;;;3.03;;
73508;SDS011;72120;54.964;73.444;2023-09-12T07:25:59;9.30;;;3.00;;
73508;SDS011;72120;54.964;73.444;2023-09-12T07:28:26;11.63;;;3.30;;
73508;SDS011;72120;54.964;73.444;2023-09-12T07:30:56;6.78;;;3.03;;
73508;SDS011;72120;54.964;73.444;2023-09-12T07:33:22;8.15;;;3.33;;
73508;SDS011;72120;54.964;73.444;2023-09-12T07:35:52;5.78;;;3.08;;
73508;SDS011;72120;54.964;73.444;2023-09-12T07:38:21;7.75;;;2.72;;
73508;SDS011;72120;54.964;73.444;2023-09-12T07:40:48;6.18;;;3.30;;
73508;SDS011;72120;54.964;73.444;2023-09-12T07:43:14;7.00;;;3.45;;
73508;SDS011;72120;54.964;73.444;2023-09-12T07:45:41;7.13;;;2.92;;
73508;SDS011;72120;54.964;73.444;2023-09-12T07:48:08;12.13;;;2.90;;
73508;SDS011;72120;54.964;73.444;2023-09-12T07:50:38;9.20;;;3.03;;
73508;SDS011;72120;54.964;73.444;2023-09-12T07:53:04;7.72;;;2.90;;
73508;SDS011;72120;54.964;73.444;2023-09-12T07:55:31;6.50;;;2.88;;
73508;SDS011;72120;54.964;73.444;2023-09-12T07:58:04;6.80;;;2.97;;
73508;SDS011;72120;54.964;73.444;2023-09-12T08:00:30;8.05;;;2.72;;
73508;SDS011;72120;54.964;73.444;2023-09-12T08:02:56;9.75;;;3.08;;
73508;SDS011;72120;54.964;73.444;2023-09-12T08:05:22;10.02;;;4.15;;
73508;SDS011;72120;54.964;73.444;2023-09-12T08:07:48;7.90;;;3.53;;
73508;SDS011;72120;54.964;73.444;2023-09-12T08:10:14;10.30;;;3.20;;
73508;SDS011;72120;54.964;73.444;2023-09-12T08:12:41;10.27;;;3.65;;
73508;SDS011;72120;54.964;73.444;2023-09-12T08:15:07;6.93;;;3.38;;
73508;SDS011;72120;54.964;73.444;2023-09-12T08:17:34;8.93;;;2.83;;
73508;SDS011;72120;54.964;73.444;2023-09-12T08:20:00;10.02;;;3.38;;
73508;SDS011;72120;54.964;73.444;2023-09-12T08:22:28;6.05;;;2.70;;
73508;SDS011;72120;54.964;73.444;2023-09-12T08:24:54;9.18;;;3.10;;
73508;SDS011;72120;54.964;73.444;2023-09-12T08:27:20;9.15;;;3.28;;
73508;SDS011;72120;54.964;73.444;2023-09-12T08:29:46;36.33;;;7.30;;
73508;SDS011;72120;54.964;73.444;2023-09-12T08:32:15;43.08;;;7.55;;
73508;SDS011;72120;54.964;73.444;2023-09-12T08:34:41;41.53;;;6.07;;
73508;SDS011;72120;54.964;73.444;2023-09-12T08:37:07;52.15;;;8.98;;
73508;SDS011;72120;54.964;73.444;2023-09-12T08:39:43;37.00;;;7.10;;
73508;SDS011;72120;54.964;73.444;2023-09-12T08:42:14;31.05;;;5.30;;
73508;SDS011;72120;54.964;73.444;2023-09-12T08:44:42;17.67;;;4.32;;
73508;SDS011;72120;54.964;73.444;2023-09-12T08:47:09;9.13;;;3.40;;
73508;SDS011;72120;54.964;73.444;2023-09-12T08:49:36;10.63;;;3.20;;
73508;SDS011;72120;54.964;73.444;2023-09-12T08:52:05;10.13;;;2.95;;
73508;SDS011;72120;54.964;73.444;2023-09-12T08:54:32;5.38;;;2.75;;
73508;SDS011;72120;54.964;73.444;2023-09-12T08:57:00;8.75;;;2.80;;
73508;SDS011;72120;54.964;73.444;2023-09-12T08:59:35;24.52;;;4.10;;
73508;SDS011;72120;54.964;73.444;2023-09-12T09:02:02;7.30;;;2.75;;
73508;SDS011;72120;54.964;73.444;2023-09-12T09:04:33;6.40;;;3.05;;
73508;SDS011;72120;54.964;73.444;2023-09-12T09:07:01;8.68;;;3.67;;
73508;SDS011;72120;54.964;73.444;2023-09-12T09:09:29;12.98;;;3.30;;
73508;SDS011;72120;54.964;73.444;2023-09-12T09:11:56;27.75;;;4.80;;
73508;SDS011;72120;54.964;73.444;2023-09-12T09:14:25;11.35;;;3.50;;
73508;SDS011;72120;54.964;73.444;2023-09-12T09:16:52;8.48;;;2.80;;
73508;SDS011;72120;54.964;73.444;2023-09-12T09:19:18;7.93;;;3.05;;
73508;SDS011;72120;54.964;73.444;2023-09-12T09:21:45;9.15;;;2.55;;
73508;SDS011;72120;54.964;73.444;2023-09-12T09:24:12;7.40;;;2.90;;
73508;SDS011;72120;54.964;73.444;2023-09-12T09:26:42;13.70;;;3.42;;
73508;SDS011;72120;54.964;73.444;2023-09-12T09:29:16;7.40;;;3.08;;
73508;SDS011;72120;54.964;73.444;2023-09-12T09:31:46;11.05;;;3.40;;
73508;SDS011;72120;54.964;73.444;2023-09-12T09:34:17;14.90;;;4.57;;
73508;SDS011;72120;54.964;73.444;2023-09-12T09:36:48;19.33;;;5.47;;
73508;SDS011;72120;54.964;73.444;2023-09-12T09:39:19;20.17;;;4.97;;
73508;SDS011;72120;54.964;73.444;2023-09-12T09:41:47;13.50;;;3.90;;
73508;SDS011;72120;54.964;73.444;2023-09-12T09:44:14;22.67;;;5.13;;
73508;SDS011;72120;54.964;73.444;2023-09-12T09:46:44;25.67;;;4.72;;
73508;SDS011;72120;54.964;73.444;2023-09-12T09:49:14;9.43;;;3.17;;
73508;SDS011;72120;54.964;73.444;2023-09-12T09:51:43;8.70;;;3.40;;
73508;SDS011;72120;54.964;73.444;2023-09-12T09:54:12;10.05;;;3.97;;
73508;SDS011;72120;54.964;73.444;2023-09-12T09:56:49;8.20;;;3.25;;
73508;SDS011;72120;54.964;73.444;2023-09-12T09:59:19;9.43;;;3.40;;
73508;SDS011;72120;54.964;73.444;2023-09-12T10:01:48;13.73;;;4.20;;
73508;SDS011;72120;54.964;73.444;2023-09-12T10:04:16;9.52;;;3.38;;
73508;SDS011;72120;54.964;73.444;2023-09-12T10:06:44;14.20;;;3.80;;
73508;SDS011;72120;54.964;73.444;2023-09-12T10:09:12;12.20;;;4.50;;
73508;SDS011;72120;54.964;73.444;2023-09-12T10:11:40;36.20;;;7.07;;
73508;SDS011;72120;54.964;73.444;2023-09-12T10:14:07;13.30;;;4.40;;
73508;SDS011;72120;54.964;73.444;2023-09-12T10:24:19;53.08;;;8.57;;
73508;SDS011;72120;54.964;73.444;2023-09-12T10:26:48;14.07;;;4.32;;
73508;SDS011;72120;54.964;73.444;2023-09-12T10:29:15;8.02;;;3.50;;
73508;SDS011;72120;54.964;73.444;2023-09-12T10:31:42;5.68;;;3.45;;
73508;SDS011;72120;54.964;73.444;2023-09-12T10:34:08;8.18;;;3.40;;
73508;SDS011;72120;54.964;73.444;2023-09-12T10:36:38;12.13;;;3.58;;
73508;SDS011;72120;54.964;73.444;2023-09-12T10:39:06;22.65;;;6.28;;
73508;SDS011;72120;54.964;73.444;2023-09-12T10:41:33;26.90;;;5.53;;
73508;SDS011;72120;54.964;73.444;2023-09-12T10:44:06;66.28;;;11.82;;
73508;SDS011;72120;54.964;73.444;2023-09-12T10:46:39;30.25;;;6.28;;
73508;SDS011;72120;54.964;73.444;2023-09-12T10:49:09;12.10;;;5.10;;
73508;SDS011;72120;54.964;73.444;2023-09-12T10:51:37;9.43;;;3.70;;
73508;SDS011;72120;54.964;73.444;2023-09-12T10:54:06;5.57;;;3.60;;
73508;SDS011;72120;54.964;73.444;2023-09-12T10:56:35;5.80;;;3.60;;
73508;SDS011;72120;54.964;73.444;2023-09-12T11:01:30;23.67;;;5.15;;
73508;SDS011;72120;54.964;73.444;2023-09-12T11:03:57;30.02;;;6.32;;
73508;SDS011;72120;54.964;73.444;2023-09-12T11:06:29;11.55;;;4.10;;
73508;SDS011;72120;54.964;73.444;2023-09-12T11:11:41;9.80;;;3.60;;
73508;SDS011;72120;54.964;73.444;2023-09-12T11:14:09;15.95;;;4.25;;
73508;SDS011;72120;54.964;73.444;2023-09-12T11:16:35;23.17;;;5.05;;
73508;SDS011;72120;54.964;73.444;2023-09-12T11:21:43;14.07;;;4.47;;
73508;SDS011;72120;54.964;73.444;2023-09-12T11:24:12;34.95;;;7.53;;
73508;SDS011;72120;54.964;73.444;2023-09-12T11:29:38;22.13;;;5.90;;
73508;SDS011;72120;54.964;73.444;2023-09-12T11:32:06;18.20;;;5.50;;
73508;SDS011;72120;54.964;73.444;2023-09-12T11:34:36;16.55;;;4.82;;
73508;SDS011;72120;54.964;73.444;2023-09-12T11:37:10;22.35;;;5.80;;
73508;SDS011;72120;54.964;73.444;2023-09-12T11:39:47;11.43;;;3.80;;
73508;SDS011;72120;54.964;73.444;2023-09-12T11:42:15;12.25;;;4.60;;
73508;SDS011;72120;54.964;73.444;2023-09-12T11:44:42;23.73;;;4.80;;
73508;SDS011;72120;54.964;73.444;2023-09-12T11:47:10;17.85;;;4.82;;
73508;SDS011;72120;54.964;73.444;2023-09-12T11:49:41;10.48;;;4.18;;
73508;SDS011;72120;54.964;73.444;2023-09-12T11:52:08;10.82;;;3.78;;
73508;SDS011;72120;54.964;73.444;2023-09-12T11:54:35;10.02;;;3.80;;
73508;SDS011;72120;54.964;73.444;2023-09-12T11:59:28;37.90;;;6.47;;
73508;SDS011;72120;54.964;73.444;2023-09-12T12:01:55;16.02;;;4.65;;
73508;SDS011;72120;54.964;73.444;2023-09-12T12:04:24;24.50;;;5.35;;
73508;SDS011;72120;54.964;73.444;2023-09-12T12:06:53;16.13;;;3.72;;
73508;SDS011;72120;54.964;73.444;2023-09-12T12:09:20;13.07;;;3.88;;
73508;SDS011;72120;54.964;73.444;2023-09-12T12:11:48;14.77;;;3.85;;
73508;SDS011;72120;54.964;73.444;2023-09-12T12:14:16;7.50;;;3.78;;
73508;SDS011;72120;54.964;73.444;2023-09-12T12:16:43;9.68;;;3.92;;
73508;SDS011;72120;54.964;73.444;2023-09-12T12:19:10;11.65;;;4.10;;
73508;SDS011;72120;54.964;73.444;2023-09-12T12:21:37;22.90;;;5.72;;
73508;SDS011;72120;54.964;73.444;2023-09-12T12:24:09;9.88;;;4.25;;
73508;SDS011;72120;54.964;73.444;2023-09-12T12:26:37;17.05;;;5.10;;
73508;SDS011;72120;54.964;73.444;2023-09-12T12:29:07;35.83;;;7.82;;
73508;SDS011;72120;54.964;73.444;2023-09-12T12:31:34;43.20;;;8.48;;
73508;SDS011;72120;54.964;73.444;2023-09-12T12:34:00;32.85;;;7.70;;
73508;SDS011;72120;54.964;73.444;2023-09-12T12:36:27;19.27;;;6.05;;
73508;SDS011;72120;54.964;73.444;2023-09-12T12:38:53;8.02;;;4.10;;
73508;SDS011;72120;54.964;73.444;2023-09-12T12:41:23;8.95;;;4.05;;
73508;SDS011;72120;54.964;73.444;2023-09-12T12:44:14;14.80;;;4.03;;
73508;SDS011;72120;54.964;73.444;2023-09-12T12:46:51;8.25;;;4.10;;
73508;SDS011;72120;54.964;73.444;2023-09-12T12:49:18;8.73;;;4.40;;
73508;SDS011;72120;54.964;73.444;2023-09-12T12:51:45;11.48;;;3.75;;
73508;SDS011;72120;54.964;73.444;2023-09-12T12:54:15;11.10;;;4.07;;
73508;SDS011;72120;54.964;73.444;2023-09-12T12:56:42;6.82;;;3.60;;
73508;SDS011;72120;54.964;73.444;2023-09-12T12:59:11;9.10;;;4.78;;
73508;SDS011;72120;54.964;73.444;2023-09-12T13:01:37;13.30;;;5.90;;
73508;SDS011;72120;54.964;73.444;2023-09-12T13:04:07;10.25;;;4.53;;
73508;SDS011;72120;54.964;73.444;2023-09-12T13:06:34;14.35;;;5.35;;
73508;SDS011;72120;54.964;73.444;2023-09-12T13:09:03;20.83;;;7.75;;
73508;SDS011;72120;54.964;73.444;2023-09-12T13:11:31;15.95;;;6.68;;
73508;SDS011;72120;54.964;73.444;2023-09-12T13:14:01;12.68;;;5.85;;
73508;SDS011;72120;54.964;73.444;2023-09-12T13:16:29;11.38;;;6.10;;
73508;SDS011;72120;54.964;73.444;2023-09-12T13:18:55;17.95;;;7.47;;
73508;SDS011;72120;54.964;73.444;2023-09-12T13:21:21;12.68;;;6.45;;
73508;SDS011;72120;54.964;73.444;2023-09-12T13:23:47;16.20;;;5.80;;
73508;SDS011;72120;54.964;73.444;2023-09-12T13:26:14;12.63;;;5.50;;
73508;SDS011;72120;54.964;73.444;2023-09-12T13:28:41;11.23;;;5.80;;
73508;SDS011;72120;54.964;73.444;2023-09-12T13:31:07;12.20;;;4.95;;
73508;SDS011;72120;54.964;73.444;2023-09-12T13:33:42;14.50;;;5.15;;
73508;SDS011;72120;54.964;73.444;2023-09-12T13:36:10;7.13;;;4.30;;
73508;SDS011;72120;54.964;73.444;2023-09-12T13:38:36;10.80;;;4.88;;
73508;SDS011;72120;54.964;73.444;2023-09-12T13:41:03;12.65;;;4.68;;
73508;SDS011;72120;54.964;73.444;2023-09-12T13:43:31;7.65;;;4.45;;
73508;SDS011;72120;54.964;73.444;2023-09-12T13:45:57;14.18;;;5.00;;
73508;SDS011;72120;54.964;73.444;2023-09-12T13:48:23;12.52;;;4.60;;
73508;SDS011;72120;54.964;73.444;2023-09-12T13:50:51;9.18;;;4.72;;
73508;SDS011;72120;54.964;73.444;2023-09-12T13:53:17;13.10;;;5.18;;
73508;SDS011;72120;54.964;73.444;2023-09-12T13:55:43;10.85;;;5.60;;
73508;SDS011;72120;54.964;73.444;2023-09-12T13:58:09;14.52;;;5.30;;
73508;SDS011;72120;54.964;73.444;2023-09-12T14:00:35;16.08;;;5.05;;
73508;SDS011;72120;54.964;73.444;2023-09-12T14:03:02;9.73;;;4.32;;
73508;SDS011;72120;54.964;73.444;2023-09-12T14:05:28;7.13;;;3.95;;
73508;SDS011;72120;54.964;73.444;2023-09-12T14:07:54;8.13;;;4.25;;
73508;SDS011;72120;54.964;73.444;2023-09-12T14:10:21;10.05;;;4.32;;
73508;SDS011;72120;54.964;73.444;2023-09-12T14:15:13;9.25;;;4.10;;
73508;SDS011;72120;54.964;73.444;2023-09-12T14:17:41;12.50;;;4.65;;
73508;SDS011;72120;54.964;73.444;2023-09-12T14:20:24;9.40;;;4.68;;
73508;SDS011;72120;54.964;73.444;2023-09-12T14:22:51;10.45;;;4.45;;
73508;SDS011;72120;54.964;73.444;2023-09-12T14:25:17;7.82;;;4.00;;
73508;SDS011;72120;54.964;73.444;2023-09-12T14:27:43;11.68;;;4.78;;
73508;SDS011;72120;54.964;73.444;2023-09-12T14:30:10;7.88;;;4.65;;
73508;SDS011;72120;54.964;73.444;2023-09-12T14:32:39;9.20;;;4.60;;
73508;SDS011;72120;54.964;73.444;2023-09-12T14:35:05;9.07;;;4.38;;
73508;SDS011;72120;54.964;73.444;2023-09-12T14:37:35;7.07;;;3.70;;
73508;SDS011;72120;54.964;73.444;2023-09-12T14:40:03;13.48;;;4.80;;
73508;SDS011;72120;54.964;73.444;2023-09-12T14:42:30;10.77;;;4.20;;
73508;SDS011;72120;54.964;73.444;2023-09-12T14:44:56;9.90;;;4.30;;
73508;SDS011;72120;54.964;73.444;2023-09-12T14:49:50;12.32;;;4.78;;
73508;SDS011;72120;54.964;73.444;2023-09-12T14:52:16;8.27;;;4.70;;
73508;SDS011;72120;54.964;73.444;2023-09-12T14:54:42;8.30;;;4.20;;
73508;SDS011;72120;54.964;73.444;2023-09-12T14:57:08;9.20;;;4.30;;
73508;SDS011;72120;54.964;73.444;2023-09-12T14:59:39;10.95;;;4.68;;
73508;SDS011;72120;54.964;73.444;2023-09-12T15:02:06;13.23;;;5.15;;
73508;SDS011;72120;54.964;73.444;2023-09-12T15:04:32;11.18;;;6.00;;
73508;SDS011;72120;54.964;73.444;2023-09-12T15:06:58;10.20;;;5.22;;
73508;SDS011;72120;54.964;73.444;2023-09-12T15:09:24;9.45;;;5.28;;
73508;SDS011;72120;54.964;73.444;2023-09-12T15:11:50;10.18;;;5.25;;
73508;SDS011;72120;54.964;73.444;2023-09-12T15:14:16;12.68;;;4.80;;
73508;SDS011;72120;54.964;73.444;2023-09-12T15:16:43;10.82;;;4.82;;